Time;durP1;ratioP1;P1;durP2;ratioP2;P2;SDS_P1;SDS_P2;PMS_P1;PMS_P2;Temp;Humidity;BMP_temperature;BMP_pressure;BME280_temperature;BME280_humidity;BME280_pressure;Samples;Min_cycle;Max_cycle;Signal;HPM_P1;HPM_P2
2022/11/29 00:00:57;;;;;;;;;;;;;;;-143.57;100.00;51350.69;5056486;28;19928;-69
2022/11/29 00:03:24;;;;;;;;;;;;;;;-143.57;100.00;51338.78;5061910;28;19928;-68
2022/11/29 00:05:52;;;;;;;;;;;;;;;-143.57;100.00;51354.66;5057506;28;19924;-69
2022/11/29 00:08:19;;;;;;;;;;;;;;;-143.57;100.00;51366.59;5052002;28;20006;-70
2022/11/29 00:10:45;;;;;;;;;;;;;;;-143.57;100.00;51338.78;5054113;28;19924;-69
2022/11/29 00:13:12;;;;;;;;;;;;;;;-143.57;100.00;51362.63;5052658;28;20325;-69
2022/11/29 00:15:39;;;;;;;;;;;;;;;-143.57;100.00;51352.69;5056068;28;19940;-69
2022/11/29 00:18:06;;;;;;;;;;;;;;;-143.57;100.00;51334.78;5050929;28;19929;-69
2022/11/29 00:20:33;;;;;;;;;;;;;;;-143.57;100.00;51336.78;5052842;28;19931;-69
2022/11/29 00:23:00;;;;;;;;;;;;;;;-143.57;100.00;51362.63;5055289;28;20018;-69
2022/11/29 00:25:27;;;;;;;;;;;;;;;-143.57;100.00;51342.75;5056160;28;20019;-69
2022/11/29 00:27:53;;;;;;;;;;;;;;;-143.57;100.00;51342.75;5051477;28;19924;-69
2022/11/29 00:30:20;;;;;;;;;;;;;;;-143.57;100.00;51318.88;5054647;28;20498;-69
2022/11/29 00:32:47;;;;;;;;;;;;;;;-143.57;100.00;51334.78;5041099;28;20557;-69
2022/11/29 00:35:13;;;;;;;;;;;;;;;-143.57;100.00;51386.47;5056531;28;19931;-69
2022/11/29 00:37:40;;;;;;;;;;;;;;;-143.57;100.00;51372.56;5055481;28;19936;-69
2022/11/29 00:40:07;;;;;;;;;;;;;;;-143.57;100.00;51356.66;5055331;28;19936;-69
2022/11/29 00:42:34;;;;;;;;;;;;;;;-143.57;100.00;51372.56;5052412;28;19925;-70
2022/11/29 00:45:00;;;;;;;;;;;;;;;-143.57;100.00;51374.56;5049813;28;20024;-69
2022/11/29 00:47:27;;;;;;;;;;;;;;;-143.57;100.00;51362.63;5057109;28;19932;-69
2022/11/29 00:49:53;;;;;;;;;;;;;;;-143.57;100.00;51324.84;5048875;28;20547;-69
2022/11/29 00:52:20;;;;;;;;;;;;;;;-143.57;100.00;51358.66;5050988;28;19936;-69
2022/11/29 00:54:47;;;;;;;;;;;;;;;-143.57;100.00;51380.50;5058779;28;19928;-69
2022/11/29 00:57:13;;;;;;;;;;;;;;;-143.57;100.00;51326.84;5060166;28;20645;-69
2022/11/29 00:59:40;;;;;;;;;;;;;;;-143.57;100.00;51370.56;5057836;28;19936;-69
2022/11/29 01:02:06;;;;;;;;;;;;;;;-143.57;100.00;51390.47;5061678;28;19932;-69
2022/11/29 01:04:33;;;;;;;;;;;;;;;-143.57;100.00;51342.75;5060005;28;20593;-69
2022/11/29 01:07:00;;;;;;;;;;;;;;;-143.57;100.00;51352.69;5067032;28;20360;-69
2022/11/29 01:09:27;;;;;;;;;;;;;;;-143.57;100.00;51348.72;5062483;28;20562;-69
2022/11/29 01:11:54;;;;;;;;;;;;;;;-143.57;100.00;51386.47;5060611;28;19928;-69
2022/11/29 01:14:21;;;;;;;;;;;;;;;-143.57;100.00;51364.63;5063714;28;19932;-69
2022/11/29 01:16:48;;;;;;;;;;;;;;;-143.57;100.00;51338.78;5060036;28;20332;-69
2022/11/29 01:19:14;;;;;;;;;;;;;;;-143.57;100.00;51340.75;5064263;28;19985;-69
2022/11/29 01:21:41;;;;;;;;;;;;;;;-143.57;100.00;51356.66;5059397;28;19998;-69
2022/11/29 01:24:08;;;;;;;;;;;;;;;-143.57;100.00;51340.75;5068255;28;19931;-69
2022/11/29 01:26:35;;;;;;;;;;;;;;;-143.57;100.00;51402.38;5055921;28;19928;-69
2022/11/29 01:29:02;;;;;;;;;;;;;;;-143.57;100.00;51378.53;5059697;28;19924;-69
2022/11/29 01:31:31;;;;;;;;;;;;;;;-143.57;100.00;51314.91;5058066;28;19924;-69
2022/11/29 01:33:59;;;;;;;;;;;;;;;-143.57;100.00;51346.72;5070453;28;19928;-69
2022/11/29 01:36:26;;;;;;;;;;;;;;;-143.57;100.00;51346.72;5060949;28;19928;-69
2022/11/29 01:38:53;;;;;;;;;;;;;;;-143.57;100.00;51314.91;5065251;28;19982;-69
2022/11/29 01:41:24;;;;;;;;;;;;;;;-143.57;100.00;51344.72;5055461;28;19929;-70
2022/11/29 01:43:56;;;;;;;;;;;;;;;-143.57;100.00;51306.97;5056003;28;19981;-69
2022/11/29 01:46:23;;;;;;;;;;;;;;;-143.57;100.00;51366.59;5058168;28;19931;-69
2022/11/29 01:48:51;;;;;;;;;;;;;;;-143.57;100.00;51350.69;5051602;28;20010;-69
2022/11/29 01:51:18;;;;;;;;;;;;;;;-143.57;100.00;51346.72;5053844;28;19959;-69
2022/11/29 01:53:45;;;;;;;;;;;;;;;-143.57;100.00;51378.53;5057006;28;19929;-69
2022/11/29 01:56:13;;;;;;;;;;;;;;;-143.57;100.00;51362.63;5057818;28;19986;-68
2022/11/29 01:58:41;;;;;;;;;;;;;;;-143.57;100.00;51378.53;5061047;28;19928;-69
2022/11/29 02:01:07;;;;;;;;;;;;;;;-143.57;100.00;51360.63;5061155;28;19979;-69
2022/11/29 02:03:34;;;;;;;;;;;;;;;-143.57;100.00;51326.84;5055153;28;19924;-69
2022/11/29 02:06:01;;;;;;;;;;;;;;;-143.57;100.00;51366.59;5060422;28;19932;-69
2022/11/29 02:08:36;;;;;;;;;;;;;;;-143.57;100.00;51354.66;5052238;28;19932;-69
2022/11/29 02:11:05;;;;;;;;;;;;;;;-143.57;100.00;51392.44;5056098;28;19931;-69
2022/11/29 02:13:50;;;;;;;;;;;;;;;-143.57;100.00;51350.69;5050401;28;20700;-69
2022/11/29 02:16:20;;;;;;;;;;;;;;;-143.57;100.00;51374.56;5055038;28;20030;-69
2022/11/29 02:18:49;;;;;;;;;;;;;;;-143.57;100.00;51358.66;5050075;28;20425;-69
2022/11/29 02:21:16;;;;;;;;;;;;;;;-143.57;100.00;51346.72;5051344;28;20693;-70
2022/11/29 02:24:01;;;;;;;;;;;;;;;-143.57;100.00;51322.88;5055537;28;19933;-70
2022/11/29 02:26:31;;;;;;;;;;;;;;;-143.57;100.00;51342.75;5049679;28;19925;-69
2022/11/29 02:29:09;;;;;;;;;;;;;;;-143.57;100.00;51318.88;5051757;28;19938;-71
2022/11/29 02:31:39;;;;;;;;;;;;;;;-143.57;100.00;51360.63;5050894;28;19931;-69
2022/11/29 02:34:14;;;;;;;;;;;;;;;-143.57;100.00;51342.75;5067364;28;19924;-69
2022/11/29 02:36:59;;;;;;;;;;;;;;;-143.57;100.00;51356.66;5083065;28;19931;-69
2022/11/29 02:39:48;;;;;;;;;;;;;;;-143.57;100.00;51366.59;5064960;28;19943;-69
2022/11/29 02:42:24;;;;;;;;;;;;;;;-143.57;100.00;51334.78;5073626;28;19942;-69
2022/11/29 02:45:02;;;;;;;;;;;;;;;-143.57;100.00;51380.50;5071656;28;19928;-69
2022/11/29 02:47:48;;;;;;;;;;;;;;;-143.57;100.00;51354.66;5067326;28;19924;-69
2022/11/29 02:50:14;;;;;;;;;;;;;;;-143.57;100.00;51338.78;5059178;28;19932;-69
2022/11/29 02:52:44;;;;;;;;;;;;;;;-143.57;100.00;51376.53;5061197;28;19979;-69
2022/11/29 02:55:23;;;;;;;;;;;;;;;-143.57;100.00;51374.56;5057888;28;19932;-69
2022/11/29 02:57:57;;;;;;;;;;;;;;;-143.57;100.00;51348.72;5059964;28;19928;-69
2022/11/29 03:00:24;;;;;;;;;;;;;;;-143.57;100.00;51356.66;5061372;28;20000;-69
2022/11/29 03:02:50;;;;;;;;;;;;;;;-143.57;100.00;51378.53;5060409;28;19931;-69
2022/11/29 03:05:37;;;;;;;;;;;;;;;-143.57;100.00;51358.66;5056471;28;19928;-69
2022/11/29 03:08:04;;;;;;;;;;;;;;;-143.57;100.00;51358.66;5026881;28;19924;-69
2022/11/29 03:10:42;;;;;;;;;;;;;;;-143.57;100.00;51360.63;5063779;28;19927;-69
2022/11/29 03:13:27;;;;;;;;;;;;;;;-143.57;100.00;51318.88;5060442;28;20399;-70
2022/11/29 03:15:58;;;;;;;;;;;;;;;-143.57;100.00;51360.63;5066190;28;19964;-69
2022/11/29 03:18:43;;;;;;;;;;;;;;;-143.57;100.00;51334.78;5074037;28;19925;-69
2022/11/29 03:21:25;;;;;;;;;;;;;;;-143.57;100.00;51310.94;5087335;28;19959;-69
2022/11/29 03:24:02;;;;;;;;;;;;;;;-143.57;100.00;51299.00;5070797;28;20523;-68
2022/11/29 03:26:31;;;;;;;;;;;;;;;-143.57;100.00;51374.56;5065478;28;20023;-69
2022/11/29 03:29:06;;;;;;;;;;;;;;;-143.57;100.00;51366.59;5060171;28;20298;-69
2022/11/29 03:31:38;;;;;;;;;;;;;;;-143.57;100.00;51366.59;5061118;28;19973;-69
2022/11/29 03:34:24;;;;;;;;;;;;;;;-143.57;100.00;51356.66;5061070;28;19932;-69
2022/11/29 03:36:50;;;;;;;;;;;;;;;-143.57;100.00;51362.63;5062800;28;19929;-69
2022/11/29 03:39:19;;;;;;;;;;;;;;;-143.57;100.00;51362.63;5060168;28;20066;-69
2022/11/29 03:41:48;;;;;;;;;;;;;;;-143.57;100.00;51326.84;5061011;28;19929;-69
2022/11/29 03:44:17;;;;;;;;;;;;;;;-143.57;100.00;51366.59;5067741;28;19928;-69
2022/11/29 03:47:03;;;;;;;;;;;;;;;-143.57;100.00;51322.88;5068203;28;19959;-69
2022/11/29 03:49:34;;;;;;;;;;;;;;;-143.57;100.00;51370.56;5063534;28;19924;-69
2022/11/29 03:52:19;;;;;;;;;;;;;;;-143.57;100.00;51326.84;5061028;28;20012;-69
2022/11/29 03:54:59;;;;;;;;;;;;;;;-143.57;100.00;51336.78;5052725;28;20319;-71
2022/11/29 03:57:52;;;;;;;;;;;;;;;-143.57;100.00;51338.78;5051691;28;20105;-72
2022/11/29 04:00:19;;;;;;;;;;;;;;;-143.57;100.00;51360.63;5047305;28;19958;-71
2022/11/29 04:02:55;;;;;;;;;;;;;;;-143.57;100.00;51328.81;5053240;28;20411;-68
2022/11/29 04:05:43;;;;;;;;;;;;;;;-143.57;100.00;51366.59;5075679;28;19930;-69
2022/11/29 04:08:13;;;;;;;;;;;;;;;-143.57;100.00;51350.69;5082929;28;19925;-69
2022/11/29 04:10:46;;;;;;;;;;;;;;;-143.57;100.00;51338.78;5075245;28;19929;-69
2022/11/29 04:13:22;;;;;;;;;;;;;;;-143.57;100.00;51334.78;5049308;28;20244;-65
2022/11/29 04:15:54;;;;;;;;;;;;;;;-143.57;100.00;51364.63;5052685;28;20493;-68
2022/11/29 04:18:48;;;;;;;;;;;;;;;-143.57;100.00;51376.53;5059341;28;20443;-70
2022/11/29 04:21:24;;;;;;;;;;;;;;;-143.57;100.00;51372.56;5047800;28;20631;-70
2022/11/29 04:24:14;;;;;;;;;;;;;;;-143.57;100.00;51350.69;5051215;28;19932;-70
2022/11/29 04:26:50;;;;;;;;;;;;;;;-143.57;100.00;51358.66;5053548;28;20516;-70
2022/11/29 04:29:35;;;;;;;;;;;;;;;-143.57;100.00;51360.63;5048664;28;19932;-70
2022/11/29 04:32:22;;;;;;;;;;;;;;;-143.57;100.00;51360.63;5052189;28;19928;-71
2022/11/29 04:35:14;;;;;;;;;;;;;;;-143.57;100.00;51346.72;5062978;28;19925;-70
2022/11/29 04:37:56;;;;;;;;;;;;;;;-143.57;100.00;51362.63;5037204;28;20361;-69
2022/11/29 04:40:22;;;;;;;;;;;;;;;-143.57;100.00;51338.78;5057991;28;20491;-70
2022/11/29 04:43:04;;;;;;;;;;;;;;;-143.57;100.00;51366.59;5053050;28;19956;-69
2022/11/29 04:45:37;;;;;;;;;;;;;;;-143.57;100.00;51358.66;5056666;28;19986;-70
2022/11/29 04:48:24;;;;;;;;;;;;;;;-143.57;100.00;51360.63;5058988;28;20011;-69
2022/11/29 04:50:54;;;;;;;;;;;;;;;-143.57;100.00;51354.66;5055713;28;19933;-68
2022/11/29 04:53:39;;;;;;;;;;;;;;;-143.57;100.00;51344.72;5058321;28;19929;-69
2022/11/29 04:56:24;;;;;;;;;;;;;;;-143.57;100.00;51342.75;5062727;28;20326;-69
2022/11/29 04:58:51;;;;;;;;;;;;;;;-143.57;100.00;51362.63;5054411;28;19971;-69
2022/11/29 05:01:18;;;;;;;;;;;;;;;-143.57;100.00;51364.63;5055786;28;19932;-69
2022/11/29 05:03:47;;;;;;;;;;;;;;;-143.57;100.00;51338.78;5055474;28;19936;-69
2022/11/29 05:06:33;;;;;;;;;;;;;;;-143.57;100.00;51346.72;5058919;28;19925;-72
2022/11/29 05:09:09;;;;;;;;;;;;;;;-143.57;100.00;51354.66;5062684;28;19939;-73
2022/11/29 05:11:54;;;;;;;;;;;;;;;-143.57;100.00;51378.53;5069815;28;19999;-73
2022/11/29 05:14:32;;;;;;;;;;;;;;;-143.57;100.00;51366.59;5055513;28;20686;-73
2022/11/29 05:17:08;;;;;;;;;;;;;;;-143.57;100.00;51338.78;5051816;28;19940;-73
2022/11/29 05:19:41;;;;;;;;;;;;;;;-143.57;100.00;51368.59;5062959;28;20614;-73
2022/11/29 05:22:27;;;;;;;;;;;;;;;-143.57;100.00;51346.72;5059353;28;19928;-73
2022/11/29 05:25:12;;;;;;;;;;;;;;;-143.57;100.00;51342.75;5056224;28;19943;-73
2022/11/29 05:27:39;;;;;;;;;;;;;;;-143.57;100.00;51334.78;5055329;28;19959;-73
2022/11/29 05:30:10;;;;;;;;;;;;;;;-143.57;100.00;51376.53;5056911;28;19929;-77
2022/11/29 05:32:44;;;;;;;;;;;;;;;-143.57;100.00;51386.47;5050419;28;20013;-75
2022/11/29 05:35:14;;;;;;;;;;;;;;;-143.57;100.00;51382.50;5060441;28;19928;-74
2022/11/29 05:37:55;;;;;;;;;;;;;;;-143.57;100.00;51348.72;5062862;28;19928;-77
2022/11/29 05:40:25;;;;;;;;;;;;;;;-143.57;100.00;51354.66;5064235;28;20005;-76
2022/11/29 05:43:10;;;;;;;;;;;;;;;-143.57;100.00;51386.47;5054020;28;20024;-76
2022/11/29 05:45:56;;;;;;;;;;;;;;;-143.57;100.00;51358.66;5062143;28;20067;-75
2022/11/29 05:48:25;;;;;;;;;;;;;;;-143.57;100.00;51346.72;5049723;28;19924;-75
2022/11/29 05:51:04;;;;;;;;;;;;;;;-143.57;100.00;51354.66;5058409;28;21851;-75
2022/11/29 05:53:53;;;;;;;;;;;;;;;-143.57;100.00;51354.66;5056653;28;19924;-75
2022/11/29 05:56:39;;;;;;;;;;;;;;;-143.57;100.00;51370.56;5046773;28;19928;-68
2022/11/29 05:59:08;;;;;;;;;;;;;;;-143.57;100.00;51366.59;5065256;28;19928;-67
2022/11/29 06:01:38;;;;;;;;;;;;;;;-143.57;100.00;51338.78;5065741;28;19986;-74
2022/11/29 06:04:08;;;;;;;;;;;;;;;-143.57;100.00;51380.50;5066662;28;20480;-72
2022/11/29 06:06:43;;;;;;;;;;;;;;;-143.57;100.00;51354.66;5059349;28;19925;-72
2022/11/29 06:09:10;;;;;;;;;;;;;;;-143.57;100.00;51346.72;5062605;28;20673;-72
2022/11/29 06:11:36;;;;;;;;;;;;;;;-143.57;100.00;51362.63;5061153;28;20536;-72
2022/11/29 06:14:25;;;;;;;;;;;;;;;-143.57;100.00;51372.56;5054581;28;20813;-72
2022/11/29 06:17:07;;;;;;;;;;;;;;;-143.57;100.00;51346.72;5060791;28;19932;-72
2022/11/29 06:19:43;;;;;;;;;;;;;;;-143.57;100.00;51370.56;5063746;28;19932;-72
2022/11/29 06:22:19;;;;;;;;;;;;;;;-143.57;100.00;51366.59;5052988;28;19963;-72
2022/11/29 06:25:16;;;;;;;;;;;;;;;-143.57;100.00;51364.63;5056517;28;20605;-72
2022/11/29 06:27:56;;;;;;;;;;;;;;;-143.57;100.00;51330.81;5009606;28;19933;-72
2022/11/29 06:30:25;;;;;;;;;;;;;;;-143.57;100.00;51346.72;5055850;28;19939;-73
2022/11/29 06:32:53;;;;;;;;;;;;;;;-143.57;100.00;51358.66;5063012;28;19924;-73
2022/11/29 06:35:34;;;;;;;;;;;;;;;-143.57;100.00;51378.53;5066444;28;19982;-72
2022/11/29 06:38:12;;;;;;;;;;;;;;;-143.57;100.00;51352.69;5052890;28;20325;-72
2022/11/29 06:40:39;;;;;;;;;;;;;;;-143.57;100.00;51346.72;5054053;28;19951;-73
2022/11/29 06:43:06;;;;;;;;;;;;;;;-143.57;100.00;51338.78;5056046;28;20514;-72
2022/11/29 06:45:33;;;;;;;;;;;;;;;-143.57;100.00;51390.47;5055442;28;19920;-72
2022/11/29 06:48:04;;;;;;;;;;;;;;;-143.57;100.00;51394.44;5050578;28;19928;-72
2022/11/29 06:50:40;;;;;;;;;;;;;;;-143.57;100.00;51394.44;5051796;28;20020;-73
2022/11/29 06:53:13;;;;;;;;;;;;;;;-143.57;100.00;51358.66;5054223;28;19928;-72
2022/11/29 06:56:00;;;;;;;;;;;;;;;-143.57;100.00;51378.53;5064422;28;19924;-72
2022/11/29 06:58:42;;;;;;;;;;;;;;;-143.57;100.00;51336.78;5073131;28;20105;-73
2022/11/29 07:01:09;;;;;;;;;;;;;;;-143.57;100.00;51390.47;5062135;28;19928;-72
2022/11/29 07:03:54;;;;;;;;;;;;;;;-143.57;100.00;51346.72;5063994;28;19970;-72
2022/11/29 07:06:25;;;;;;;;;;;;;;;-143.57;100.00;51360.63;5062366;28;19935;-72
2022/11/29 07:08:55;;;;;;;;;;;;;;;-143.57;100.00;51440.16;5061651;28;20686;-72
2022/11/29 07:11:22;;;;;;;;;;;;;;;-143.57;100.00;51354.66;5059153;28;19928;-72
2022/11/29 07:13:48;;;;;;;;;;;;;;;-143.57;100.00;51360.63;5079483;28;20073;-72
2022/11/29 07:16:34;;;;;;;;;;;;;;;-143.57;100.00;51386.47;5068081;28;19985;-72
2022/11/29 07:19:10;;;;;;;;;;;;;;;-143.57;100.00;51408.34;5059944;28;19986;-72
2022/11/29 07:21:39;;;;;;;;;;;;;;;-143.57;100.00;51350.69;5062809;28;19933;-73
2022/11/29 07:24:06;;;;;;;;;;;;;;;-143.57;100.00;51334.78;5063226;28;20019;-72
2022/11/29 07:26:49;;;;;;;;;;;;;;;-143.57;100.00;51362.63;5062365;28;19920;-73
2022/11/29 07:29:25;;;;;;;;;;;;;;;-143.57;100.00;51378.53;5062175;28;19951;-72
2022/11/29 07:32:02;;;;;;;;;;;;;;;-143.57;100.00;51366.59;5060191;28;19925;-73
2022/11/29 07:34:49;;;;;;;;;;;;;;;-143.57;100.00;51350.69;5053019;28;20482;-72
2022/11/29 07:37:21;;;;;;;;;;;;;;;-143.57;100.00;51350.69;5053299;28;20475;-73
2022/11/29 07:39:51;;;;;;;;;;;;;;;-143.57;100.00;51362.63;5058070;28;19933;-73
2022/11/29 07:42:27;;;;;;;;;;;;;;;-143.57;100.00;51350.69;5075294;28;19981;-73
2022/11/29 07:45:02;;;;;;;;;;;;;;;-143.57;100.00;51398.41;5057674;28;19929;-73
2022/11/29 07:47:29;;;;;;;;;;;;;;;-143.57;100.00;51346.72;5058206;28;19928;-74
2022/11/29 07:50:01;;;;;;;;;;;;;;;-143.57;100.00;51360.63;5056111;28;19985;-74
2022/11/29 07:52:28;;;;;;;;;;;;;;;-143.57;100.00;51342.75;5060949;28;19936;-74
2022/11/29 07:54:55;;;;;;;;;;;;;;;-143.57;100.00;51354.66;5060568;28;20554;-74
2022/11/29 07:57:21;;;;;;;;;;;;;;;-143.57;100.00;51348.72;5061113;28;19967;-74
2022/11/29 07:59:48;;;;;;;;;;;;;;;-143.57;100.00;51334.78;5053392;28;19933;-73
2022/11/29 08:02:24;;;;;;;;;;;;;;;-143.57;100.00;51370.56;5051152;28;19925;-74
2022/11/29 08:04:51;;;;;;;;;;;;;;;-143.57;100.00;51380.50;5059666;28;19925;-74
2022/11/29 08:07:18;;;;;;;;;;;;;;;-143.57;100.00;51354.66;5061614;28;19967;-74
2022/11/29 08:09:44;;;;;;;;;;;;;;;-143.57;100.00;51374.56;5058443;28;19925;-74
2022/11/29 08:12:11;;;;;;;;;;;;;;;-143.57;100.00;51334.78;5059812;28;19949;-74
2022/11/29 08:14:38;;;;;;;;;;;;;;;-143.57;100.00;51336.78;5065096;28;20014;-73
2022/11/29 08:17:05;;;;;;;;;;;;;;;-143.57;100.00;51346.72;5057608;28;20513;-74
2022/11/29 08:19:31;;;;;;;;;;;;;;;-143.57;100.00;51358.66;5062063;28;19958;-74
2022/11/29 08:21:58;;;;;;;;;;;;;;;-143.57;100.00;51334.78;5060298;28;19943;-74
2022/11/29 08:24:26;;;;;;;;;;;;;;;-143.57;100.00;51338.78;5062609;28;19950;-74
2022/11/29 08:26:53;;;;;;;;;;;;;;;-143.57;100.00;51328.81;5064379;28;20788;-74
2022/11/29 08:29:20;;;;;;;;;;;;;;;-143.57;100.00;51358.66;5056457;28;19928;-74
2022/11/29 08:31:51;;;;;;;;;;;;;;;-143.57;100.00;51366.59;5055596;28;20628;-74
2022/11/29 08:34:19;;;;;;;;;;;;;;;-143.57;100.00;51362.63;5081005;28;20031;-74
2022/11/29 08:36:46;;;;;;;;;;;;;;;-143.57;100.00;51356.66;5066741;28;19928;-68
2022/11/29 08:39:13;;;;;;;;;;;;;;;-143.57;100.00;51364.63;5062232;28;19987;-67
2022/11/29 08:41:39;;;;;;;;;;;;;;;-143.57;100.00;51362.63;5065732;28;19999;-66
2022/11/29 08:44:06;;;;;;;;;;;;;;;-143.57;100.00;51378.53;5059603;28;20007;-67
2022/11/29 08:49:21;;;;;;;;;;;;;;;-143.57;100.00;51342.75;5053605;28;19924;-69
2022/11/29 08:51:51;;;;;;;;;;;;;;;-143.57;100.00;51334.78;5054379;28;20290;-68
2022/11/29 08:54:18;;;;;;;;;;;;;;;-143.57;100.00;51342.75;5052985;28;19951;-68
2022/11/29 08:56:44;;;;;;;;;;;;;;;-143.57;100.00;51352.69;5062188;28;20024;-68
2022/11/29 08:59:31;;;;;;;;;;;;;;;-143.57;100.00;51378.53;5051116;28;20595;-68
2022/11/29 09:01:58;;;;;;;;;;;;;;;-143.57;100.00;51356.66;5063076;28;19933;-68
2022/11/29 09:04:25;;;;;;;;;;;;;;;-143.57;100.00;51368.59;5054915;28;19933;-68
2022/11/29 09:06:51;;;;;;;;;;;;;;;-143.57;100.00;51374.56;5058927;28;19977;-68
2022/11/29 09:09:18;;;;;;;;;;;;;;;-143.57;100.00;51372.56;5055431;28;20435;-68
2022/11/29 09:11:44;;;;;;;;;;;;;;;-143.57;100.00;51362.63;5057096;28;20070;-66
2022/11/29 09:14:15;;;;;;;;;;;;;;;-143.57;100.00;51330.81;5056447;28;19924;-67
2022/11/29 09:16:42;;;;;;;;;;;;;;;-143.57;100.00;51350.69;5058000;28;20035;-67
2022/11/29 09:19:09;;;;;;;;;;;;;;;-143.57;100.00;51358.66;5064873;28;20009;-65
2022/11/29 09:21:36;;;;;;;;;;;;;;;-143.57;100.00;51354.66;5054289;28;19920;-67
2022/11/29 09:24:05;;;;;;;;;;;;;;;-143.57;100.00;51330.81;5066644;28;19991;-66
2022/11/29 09:26:33;;;;;;;;;;;;;;;-143.57;100.00;51372.56;5056580;28;20011;-71
2022/11/29 09:29:00;;;;;;;;;;;;;;;-143.57;100.00;51350.69;5063555;28;19924;-67
2022/11/29 09:31:28;;;;;;;;;;;;;;;-143.57;100.00;51346.72;5057012;28;19989;-66
2022/11/29 09:33:54;;;;;;;;;;;;;;;-143.57;100.00;51340.75;5057683;28;19928;-66
2022/11/29 09:36:21;;;;;;;;;;;;;;;-143.57;100.00;51318.88;5056988;28;19925;-67
2022/11/29 09:38:54;;;;;;;;;;;;;;;-143.57;100.00;51350.69;5058690;28;19928;-67
2022/11/29 09:41:35;;;;;;;;;;;;;;;-143.57;100.00;51350.69;5058729;28;20563;-67
2022/11/29 09:44:20;;;;;;;;;;;;;;;-143.57;100.00;51366.59;5054161;28;20380;-67
2022/11/29 09:47:22;;;;;;;;;;;;;;;-143.57;100.00;51370.56;5058601;28;19986;-68
2022/11/29 09:49:52;;;;;;;;;;;;;;;-143.57;100.00;51334.78;5012897;28;19944;-67
2022/11/29 09:52:27;;;;;;;;;;;;;;;-143.57;100.00;51334.78;5048436;28;20027;-67
2022/11/29 09:55:13;;;;;;;;;;;;;;;-143.57;100.00;51336.78;5059460;28;19958;-67
2022/11/29 09:57:42;;;;;;;;;;;;;;;-143.57;100.00;51354.66;5059363;28;20014;-68
2022/11/29 10:00:16;;;;;;;;;;;;;;;-143.57;100.00;51310.94;5058780;28;19935;-67
2022/11/29 10:02:46;;;;;;;;;;;;;;;-143.57;100.00;51364.63;5058194;28;19932;-68
2022/11/29 10:05:20;;;;;;;;;;;;;;;-143.57;100.00;51350.69;5055756;28;20424;-67
2022/11/29 10:07:50;;;;;;;;;;;;;;;-143.57;100.00;51328.81;5060045;28;19928;-67
2022/11/29 10:10:19;;;;;;;;;;;;;;;-143.57;100.00;51340.75;5061190;28;19928;-68
2022/11/29 10:12:53;;;;;;;;;;;;;;;-143.57;100.00;51358.66;5056892;28;19935;-67
2022/11/29 10:15:22;;;;;;;;;;;;;;;-143.57;100.00;51342.75;5057410;28;19924;-67
2022/11/29 10:17:59;;;;;;;;;;;;;;;-143.57;100.00;51346.72;5057036;28;20019;-67
2022/11/29 10:20:29;;;;;;;;;;;;;;;-143.57;100.00;51366.59;5056540;28;20661;-67
2022/11/29 10:23:01;;;;;;;;;;;;;;;-143.57;100.00;51354.66;5058875;28;19929;-67
2022/11/29 10:25:34;;;;;;;;;;;;;;;-143.57;100.00;51338.78;5056838;28;19925;-67
2022/11/29 10:28:02;;;;;;;;;;;;;;;-143.57;100.00;51346.72;5057413;28;20251;-68
2022/11/29 10:30:32;;;;;;;;;;;;;;;-143.57;100.00;51326.84;5057629;28;19928;-64
2022/11/29 10:32:59;;;;;;;;;;;;;;;-143.57;100.00;51350.69;5057772;28;19925;-67
2022/11/29 10:35:28;;;;;;;;;;;;;;;-143.57;100.00;51338.78;5058661;28;20015;-66
2022/11/29 10:37:57;;;;;;;;;;;;;;;-143.57;100.00;51338.78;5063650;28;19977;-66
2022/11/29 10:40:46;;;;;;;;;;;;;;;-143.57;100.00;51334.78;5060492;28;19928;-66
2022/11/29 10:43:12;;;;;;;;;;;;;;;-143.57;100.00;51358.66;5063165;28;20468;-66
2022/11/29 10:45:44;;;;;;;;;;;;;;;-143.57;100.00;51299.00;5058121;28;19932;-66
2022/11/29 10:48:13;;;;;;;;;;;;;;;-143.57;100.00;51330.81;5070016;28;19924;-66
2022/11/29 10:50:42;;;;;;;;;;;;;;;-143.57;100.00;51364.63;5062692;28;20435;-68
2022/11/29 10:53:13;;;;;;;;;;;;;;;-143.57;100.00;51326.84;5056204;28;19932;-66
2022/11/29 10:55:43;;;;;;;;;;;;;;;-143.57;100.00;51338.78;5055406;28;20610;-66
2022/11/29 10:58:09;;;;;;;;;;;;;;;-143.57;100.00;51346.72;5064939;28;19936;-72
2022/11/29 11:00:49;;;;;;;;;;;;;;;-143.57;100.00;51334.78;5061536;28;19928;-72
2022/11/29 11:03:36;;;;;;;;;;;;;;;-143.57;100.00;51320.88;5065276;28;20149;-72
2022/11/29 11:06:18;;;;;;;;;;;;;;;-143.57;100.00;51358.66;5064460;28;19973;-72
2022/11/29 11:08:47;;;;;;;;;;;;;;;-143.57;100.00;51350.69;5061652;28;19935;-68
2022/11/29 11:11:21;;;;;;;;;;;;;;;-143.57;100.00;51322.88;5057190;28;19925;-69
2022/11/29 11:13:56;;;;;;;;;;;;;;;-143.57;100.00;51346.72;5054553;28;19955;-69
2022/11/29 11:16:23;;;;;;;;;;;;;;;-143.57;100.00;51354.66;5061400;28;20070;-70
2022/11/29 11:18:50;;;;;;;;;;;;;;;-143.57;100.00;51338.78;5061778;28;19925;-67
2022/11/29 11:21:18;;;;;;;;;;;;;;;-143.57;100.00;51342.75;5062810;28;19980;-66
2022/11/29 11:23:53;;;;;;;;;;;;;;;-143.57;100.00;51289.06;5058073;28;19925;-66
2022/11/29 11:26:20;;;;;;;;;;;;;;;-143.57;100.00;51358.66;5059877;28;19993;-67
2022/11/29 11:28:50;;;;;;;;;;;;;;;-143.57;100.00;51332.81;5055353;28;19932;-68
2022/11/29 11:31:25;;;;;;;;;;;;;;;-143.57;100.00;51334.78;5062577;28;20003;-67
2022/11/29 11:33:51;;;;;;;;;;;;;;;-143.57;100.00;51350.69;5060234;28;19924;-66
2022/11/29 11:36:18;;;;;;;;;;;;;;;-143.57;100.00;51303.00;5061722;28;19924;-67
2022/11/29 11:38:49;;;;;;;;;;;;;;;-143.57;100.00;51334.78;5055245;28;20007;-66
2022/11/29 11:41:18;;;;;;;;;;;;;;;-143.57;100.00;51346.72;5062261;28;19937;-67
2022/11/29 11:43:50;;;;;;;;;;;;;;;-143.57;100.00;51314.91;5065328;28;20473;-66
2022/11/29 11:46:17;;;;;;;;;;;;;;;-143.57;100.00;51310.94;5060328;28;19977;-67
2022/11/29 11:48:45;;;;;;;;;;;;;;;-143.57;100.00;51382.50;5057958;28;20019;-67
2022/11/29 11:51:20;;;;;;;;;;;;;;;-143.57;100.00;51366.59;5054631;28;19932;-67
2022/11/29 11:53:49;;;;;;;;;;;;;;;-143.57;100.00;51350.69;5057566;28;20451;-67
2022/11/29 11:56:16;;;;;;;;;;;;;;;-143.57;100.00;51334.78;5059849;28;20011;-66
2022/11/29 11:58:43;;;;;;;;;;;;;;;-143.57;100.00;51330.81;5054661;28;20611;-65
2022/11/29 12:01:24;;;;;;;;;;;;;;;-143.57;100.00;51322.88;5055592;28;19933;-66
2022/11/29 12:03:55;;;;;;;;;;;;;;;-143.57;100.00;51344.72;5058484;28;19986;-65
2022/11/29 12:06:26;;;;;;;;;;;;;;;-143.57;100.00;51378.53;5059500;28;19932;-67
2022/11/29 12:08:54;;;;;;;;;;;;;;;-143.57;100.00;51362.63;5055522;28;19973;-67
2022/11/29 12:11:22;;;;;;;;;;;;;;;-143.57;100.00;51346.72;5055359;28;19938;-67
2022/11/29 12:13:51;;;;;;;;;;;;;;;-143.57;100.00;51378.53;5055449;28;19931;-66
2022/11/29 12:16:29;;;;;;;;;;;;;;;-143.57;100.00;51378.53;5057059;28;19932;-65
2022/11/29 12:19:13;;;;;;;;;;;;;;;-143.57;100.00;51318.88;5056926;28;19936;-66
2022/11/29 12:21:42;;;;;;;;;;;;;;;-143.57;100.00;51334.78;5050520;28;19937;-65
2022/11/29 12:24:18;;;;;;;;;;;;;;;-143.57;100.00;51358.66;5061058;28;19928;-66
2022/11/29 12:26:46;;;;;;;;;;;;;;;-143.57;100.00;51350.69;5057424;28;20015;-65
2022/11/29 12:29:30;;;;;;;;;;;;;;;-143.57;100.00;51342.75;5050571;28;19936;-65
2022/11/29 12:32:16;;;;;;;;;;;;;;;-143.57;100.00;51342.75;5049170;28;20021;-66
2022/11/29 12:34:54;;;;;;;;;;;;;;;-143.57;100.00;51358.66;5057815;28;19935;-66
2022/11/29 12:37:31;;;;;;;;;;;;;;;-143.57;100.00;51326.84;5056042;28;19979;-66
2022/11/29 12:40:07;;;;;;;;;;;;;;;-143.57;100.00;51366.59;5056102;28;19932;-66
2022/11/29 12:42:35;;;;;;;;;;;;;;;-143.57;100.00;51314.91;5056315;28;19928;-67
2022/11/29 12:45:17;;;;;;;;;;;;;;;-143.57;100.00;51310.94;5050281;28;19932;-68
2022/11/29 12:47:54;;;;;;;;;;;;;;;-143.57;100.00;51362.63;5063989;28;19931;-68